createdAt,value
2023-05-03T00:03:11.422Z,8.30
2023-05-03T00:07:28.712Z,8.20
2023-05-03T00:11:45.875Z,8.20
2023-05-03T00:16:03.348Z,8.20
2023-05-03T00:20:20.703Z,8.20
2023-05-03T00:24:38.002Z,8.20
2023-05-03T00:28:55.176Z,8.20
2023-05-03T00:33:12.432Z,8.20
2023-05-03T00:37:30.895Z,8.10
2023-05-03T00:41:48.044Z,8.10
2023-05-03T00:46:16.209Z,8.00
2023-05-03T00:50:35.648Z,8.10
2023-05-03T00:54:53.442Z,8.00
2023-05-03T00:59:12.307Z,7.90
2023-05-03T01:03:29.592Z,7.90
2023-05-03T01:08:00.821Z,7.80
2023-05-03T01:12:30.658Z,7.80
2023-05-03T01:16:51.751Z,7.80
2023-05-03T01:21:10.618Z,7.70
2023-05-03T01:25:27.882Z,7.60
2023-05-03T01:29:45.707Z,7.60
2023-05-03T01:34:26.125Z,7.60
2023-05-03T01:38:43.601Z,7.60
2023-05-03T01:43:02.006Z,7.60
2023-05-03T01:47:19.222Z,7.70
2023-05-03T01:51:36.570Z,7.70
2023-05-03T01:55:53.815Z,7.70
2023-05-03T02:00:11.692Z,7.50
2023-05-03T02:04:30.234Z,7.50
2023-05-03T02:08:47.428Z,7.50
2023-05-03T02:13:04.565Z,7.40
2023-05-03T02:17:22.121Z,7.40
2023-05-03T02:21:39.394Z,7.40
2023-05-03T02:25:57.870Z,7.50
2023-05-03T02:30:15.064Z,7.40
2023-05-03T02:34:33.074Z,7.30
2023-05-03T02:38:50.325Z,7.30
2023-05-03T02:43:07.540Z,7.20
2023-05-03T02:47:24.731Z,7.10
2023-05-03T02:51:42.250Z,7.10
2023-05-03T02:55:59.429Z,7.00
2023-05-03T03:00:16.778Z,7.00
2023-05-03T03:04:35.351Z,6.80
2023-05-03T03:08:52.568Z,6.80
2023-05-03T03:13:09.727Z,6.80
2023-05-03T03:17:27.490Z,6.70
2023-05-03T03:21:44.784Z,6.70
2023-05-03T03:26:01.928Z,6.70
2023-05-03T03:30:19.521Z,6.80
2023-05-03T03:34:37.053Z,6.70
2023-05-03T03:38:54.227Z,6.70
2023-05-03T03:43:11.516Z,6.70
2023-05-03T03:47:28.645Z,6.70
2023-05-03T03:51:45.881Z,6.80
2023-05-03T03:56:03.090Z,6.80
2023-05-03T04:00:20.268Z,6.80
2023-05-03T04:04:37.537Z,6.80
2023-05-03T04:08:55.149Z,6.90
2023-05-03T04:13:14.052Z,6.70
2023-05-03T04:17:34.817Z,6.80
2023-05-03T04:21:52.526Z,6.50
2023-05-03T04:26:14.594Z,6.60
2023-05-03T04:30:43.783Z,6.60
2023-05-03T04:35:00.985Z,6.80
2023-05-03T04:39:18.208Z,6.80
2023-05-03T04:43:35.952Z,6.80
2023-05-03T04:47:53.358Z,7.10
2023-05-03T04:52:11.036Z,7.00
2023-05-03T04:56:29.517Z,6.90
2023-05-03T05:00:46.965Z,6.80
2023-05-03T05:05:04.167Z,6.80
2023-05-03T05:09:26.502Z,6.80
2023-05-03T05:13:43.718Z,6.80
2023-05-03T05:18:00.963Z,6.90
2023-05-03T05:22:19.744Z,7.00
2023-05-03T05:26:36.889Z,6.90
2023-05-03T05:30:54.157Z,7.00
2023-05-03T05:35:11.355Z,7.00
2023-05-03T05:39:28.456Z,7.20
2023-05-03T05:43:45.621Z,7.20
2023-05-03T05:48:02.841Z,7.40
2023-05-03T05:52:19.969Z,7.80
2023-05-03T05:56:37.616Z,7.90
2023-05-03T06:01:01.455Z,7.60
2023-05-03T06:05:19.230Z,7.40
2023-05-03T06:09:36.428Z,7.30
2023-05-03T06:13:53.627Z,7.40
2023-05-03T06:18:11.040Z,7.70
2023-05-03T06:22:28.181Z,7.80
2023-05-03T06:26:45.368Z,8.00
2023-05-03T06:31:02.702Z,8.30
2023-05-03T06:35:21.869Z,7.90
2023-05-03T06:39:39.274Z,7.80
2023-05-03T06:43:56.508Z,7.80
2023-05-03T06:48:13.809Z,7.90
2023-05-03T06:52:31.251Z,8.00
2023-05-03T06:56:48.409Z,8.20
2023-05-03T07:01:05.633Z,8.50
2023-05-03T07:05:22.839Z,8.60
2023-05-03T07:09:43.621Z,8.80
2023-05-03T07:14:01.275Z,8.60
2023-05-03T07:18:18.730Z,8.80
2023-05-03T07:22:39.290Z,9.00
2023-05-03T07:26:58.291Z,8.70
2023-05-03T07:31:15.636Z,8.60
2023-05-03T07:35:33.054Z,8.90
2023-05-03T07:39:50.204Z,9.20
2023-05-03T07:44:07.833Z,9.80
2023-05-03T07:48:25.204Z,10.90
2023-05-03T07:52:43.471Z,10.60
2023-05-03T07:57:00.978Z,10.10
2023-05-03T08:01:18.108Z,11.00
2023-05-03T08:05:36.720Z,11.80
2023-05-03T08:09:53.948Z,10.60
2023-05-03T08:14:12.409Z,10.80
2023-05-03T08:18:29.725Z,11.50
2023-05-03T08:22:47.198Z,13.20
2023-05-03T08:27:05.860Z,12.20
2023-05-03T08:31:23.203Z,11.90
2023-05-03T08:35:40.860Z,13.10
2023-05-03T08:40:01.292Z,12.40
2023-05-03T08:44:25.810Z,13.60
2023-05-03T08:48:45.020Z,12.20
2023-05-03T08:53:04.473Z,13.70
2023-05-03T08:57:24.703Z,13.40
2023-05-03T09:01:43.114Z,13.30
2023-05-03T09:06:03.465Z,13.80
2023-05-03T09:10:24.558Z,14.50
2023-05-03T09:14:43.999Z,13.90
2023-05-03T09:19:03.432Z,14.10
2023-05-03T09:23:31.062Z,13.10
2023-05-03T09:28:01.249Z,13.30
2023-05-03T09:32:19.690Z,15.10
2023-05-03T09:36:47.631Z,15.60
2023-05-03T09:41:08.079Z,14.30
2023-05-03T09:45:25.327Z,15.90
2023-05-03T09:49:43.110Z,15.60
2023-05-03T09:54:01.137Z,15.40
2023-05-03T09:58:19.009Z,16.70
2023-05-03T10:02:36.554Z,17.20
2023-05-03T10:07:00.885Z,14.50
2023-05-03T10:11:18.609Z,14.80
2023-05-03T10:15:37.801Z,15.70
2023-05-03T10:20:07.003Z,16.00
2023-05-03T10:24:24.304Z,15.30
2023-05-03T10:28:41.441Z,15.60
2023-05-03T10:33:00.341Z,15.50
2023-05-03T10:37:17.604Z,16.20
2023-05-03T10:41:34.744Z,15.20
2023-05-03T10:45:51.942Z,16.70
2023-05-03T10:50:11.844Z,17.60
2023-05-03T10:54:29.511Z,16.50
2023-05-03T10:58:48.675Z,17.70
2023-05-03T11:03:33.905Z,17.10
2023-05-03T11:07:51.179Z,16.50
2023-05-03T11:12:08.757Z,17.50
2023-05-03T11:16:26.621Z,16.60
2023-05-03T11:20:44.402Z,16.00
2023-05-03T11:25:01.645Z,17.60
2023-05-03T11:29:19.503Z,16.90
2023-05-03T11:33:38.044Z,18.20
2023-05-03T11:37:55.880Z,17.90
2023-05-03T11:42:13.387Z,17.40
2023-05-03T11:46:34.057Z,16.30
2023-05-03T11:50:55.815Z,17.70
2023-05-03T11:55:13.953Z,17.20
2023-05-03T11:59:35.896Z,17.50
2023-05-03T12:03:58.016Z,17.40
2023-05-03T12:08:17.291Z,19.10
2023-05-03T12:12:37.982Z,17.90
2023-05-03T12:17:00.395Z,18.00
2023-05-03T12:25:44.782Z,17.90
2023-05-03T12:30:02.434Z,16.60
2023-05-03T12:34:33.877Z,16.50
2023-05-03T12:38:55.984Z,18.70
2023-05-03T12:43:13.886Z,18.90
2023-05-03T12:47:31.400Z,19.30
2023-05-03T12:52:04.883Z,19.50
2023-05-03T12:56:31.884Z,17.00
2023-05-03T13:05:33.728Z,19.30
2023-05-03T13:14:14.162Z,17.90
2023-05-03T13:18:31.920Z,18.00
2023-05-03T13:22:49.460Z,18.20
2023-05-03T13:27:07.220Z,19.20
2023-05-03T13:31:24.531Z,17.40
2023-05-03T13:35:41.797Z,18.30
2023-05-03T13:39:59.134Z,19.40
2023-05-03T13:44:16.693Z,19.20
2023-05-03T13:48:34.123Z,18.90
2023-05-03T13:52:51.324Z,16.70
2023-05-03T13:57:08.966Z,17.70
2023-05-03T14:01:28.204Z,18.30
2023-05-03T14:05:45.401Z,19.00
2023-05-03T14:10:06.054Z,17.70
2023-05-03T14:14:26.945Z,18.80
2023-05-03T14:18:44.346Z,18.10
2023-05-03T14:23:03.206Z,17.60
2023-05-03T14:27:21.968Z,16.90
2023-05-03T14:31:39.182Z,16.90
2023-05-03T14:35:56.953Z,17.90
2023-05-03T14:40:14.473Z,17.10
2023-05-03T14:44:31.670Z,17.40
2023-05-03T14:48:49.366Z,18.60
2023-05-03T14:53:06.444Z,19.70
2023-05-03T14:57:26.774Z,17.40
2023-05-03T15:01:44.576Z,17.30
2023-05-03T15:06:01.827Z,17.90
2023-05-03T15:10:18.977Z,18.00
2023-05-03T15:14:36.082Z,17.40
2023-05-03T15:18:53.199Z,17.20
2023-05-03T15:23:10.339Z,17.30
2023-05-03T15:27:27.568Z,17.30
2023-05-03T15:31:44.925Z,17.80
2023-05-03T15:36:02.076Z,17.70
2023-05-03T15:40:22.340Z,15.80
2023-05-03T15:44:41.010Z,15.90
2023-05-03T15:48:58.198Z,15.60
2023-05-03T15:53:15.751Z,15.50
2023-05-03T15:57:32.963Z,14.60
2023-05-03T16:01:51.186Z,14.80
2023-05-03T16:06:09.622Z,14.50
2023-05-03T16:10:26.817Z,14.50
2023-05-03T16:14:44.032Z,14.40
2023-05-03T16:19:01.153Z,14.50
2023-05-03T16:23:18.414Z,14.50
2023-05-03T16:27:35.649Z,14.40
2023-05-03T16:31:53.047Z,14.60
2023-05-03T16:36:10.422Z,14.00
2023-05-03T16:40:27.933Z,14.20
2023-05-03T16:44:45.095Z,14.20
2023-05-03T16:49:03.133Z,14.20
2023-05-03T16:53:20.819Z,14.10
2023-05-03T16:57:38.514Z,14.10
2023-05-03T17:01:55.770Z,14.10
2023-05-03T17:06:13.034Z,13.90
2023-05-03T17:10:31.526Z,13.80
2023-05-03T17:14:48.730Z,13.90
2023-05-03T17:19:05.989Z,13.90
2023-05-03T17:23:23.090Z,13.90
2023-05-03T17:27:42.319Z,13.70
2023-05-03T17:31:59.615Z,13.70
2023-05-03T17:36:16.917Z,13.60
2023-05-03T17:40:35.064Z,13.40
2023-05-03T17:44:54.718Z,13.30
2023-05-03T17:49:11.876Z,13.20
2023-05-03T17:53:29.027Z,13.20
2023-05-03T17:57:46.394Z,13.10
2023-05-03T18:02:03.814Z,13.00
2023-05-03T18:06:21.337Z,12.80
2023-05-03T18:10:41.713Z,12.70
2023-05-03T18:15:01.993Z,12.60
2023-05-03T18:19:19.381Z,12.40
2023-05-03T18:23:36.756Z,12.20
2023-05-03T18:27:54.194Z,12.00
2023-05-03T18:32:11.549Z,11.70
2023-05-03T18:36:28.898Z,11.60
2023-05-03T18:40:47.012Z,11.40
2023-05-03T18:45:04.763Z,11.20
2023-05-03T18:49:22.103Z,11.00
2023-05-03T18:53:39.624Z,10.80
2023-05-03T18:57:56.976Z,10.60
2023-05-03T19:02:14.485Z,10.40
2023-05-03T19:06:31.852Z,10.40
2023-05-03T19:10:49.481Z,10.10
2023-05-03T19:15:07.403Z,10.00
2023-05-03T19:19:24.739Z,9.90
2023-05-03T19:23:42.252Z,9.70
2023-05-03T19:27:59.600Z,9.50
2023-05-03T19:32:16.928Z,9.30
2023-05-03T19:36:34.298Z,9.10
2023-05-03T19:40:58.973Z,9.00
2023-05-03T19:45:16.342Z,8.90
2023-05-03T19:49:33.751Z,8.70
2023-05-03T19:53:51.187Z,8.50
2023-05-03T19:58:08.718Z,8.30
2023-05-03T20:02:26.139Z,8.10
2023-05-03T20:06:43.655Z,7.90
2023-05-03T20:11:01.048Z,7.70
2023-05-03T20:15:18.431Z,7.50
2023-05-03T20:19:35.704Z,7.30
2023-05-03T20:23:53.171Z,7.10
2023-05-03T20:28:10.527Z,6.90
2023-05-03T20:32:28.464Z,6.80
2023-05-03T20:36:45.682Z,6.60
2023-05-03T20:41:02.813Z,6.70
2023-05-03T20:45:19.952Z,6.70
2023-05-03T20:49:38.705Z,6.40
2023-05-03T20:53:56.030Z,6.40
2023-05-03T20:58:15.259Z,6.30
2023-05-03T21:02:32.451Z,6.20
2023-05-03T21:06:49.708Z,6.20
2023-05-03T21:11:07.042Z,5.90
2023-05-03T21:15:24.180Z,5.80
2023-05-03T21:19:41.314Z,5.70
2023-05-03T21:23:58.461Z,5.50
2023-05-03T21:28:15.664Z,5.50
2023-05-03T21:32:33.341Z,5.50
2023-05-03T21:36:50.599Z,5.40
2023-05-03T21:41:08.033Z,5.50
2023-05-03T21:45:25.187Z,5.50
2023-05-03T21:49:42.508Z,5.40
2023-05-03T21:53:59.740Z,5.10
2023-05-03T21:58:16.954Z,5.10
2023-05-03T22:02:34.123Z,5.00
2023-05-03T22:06:51.801Z,5.00
2023-05-03T22:11:09.412Z,5.00
2023-05-03T22:15:26.642Z,4.80
2023-05-03T22:19:43.788Z,4.70
2023-05-03T22:24:01.230Z,4.70
2023-05-03T22:28:18.394Z,4.70
2023-05-03T22:32:35.545Z,4.60
2023-05-03T22:36:52.671Z,4.60
2023-05-03T22:41:09.887Z,4.60
2023-05-03T22:45:27.099Z,4.60
2023-05-03T22:49:44.460Z,4.60
2023-05-03T22:54:01.553Z,4.50
2023-05-03T22:58:18.652Z,4.50
2023-05-03T23:02:35.908Z,4.10
2023-05-03T23:06:53.626Z,4.10
2023-05-03T23:11:11.051Z,4.10
2023-05-03T23:15:29.459Z,4.20
2023-05-03T23:19:46.689Z,4.20
2023-05-03T23:24:03.905Z,4.10
2023-05-03T23:28:21.169Z,4.00
2023-05-03T23:32:38.777Z,4.00
2023-05-03T23:36:56.375Z,4.00
2023-05-03T23:41:13.501Z,4.00
2023-05-03T23:45:30.842Z,4.10
2023-05-03T23:49:48.111Z,4.00
2023-05-03T23:54:05.462Z,3.90
2023-05-03T23:58:22.611Z,3.80
